National Weather Service Raw Text Product

Bulk Download

PIL:
Start UTC Date @0z:
End UTC Date @0z:
631 
FTUS43 KDMX 260525
TAFOTM
TAF
KOTM 260525Z 2606/2706 VRB04KT P6SM SCT080
     FM261800 32007KT P6SM BKN045=